Time;durP1;ratioP1;P1;durP2;ratioP2;P2;SDS_P1;SDS_P2;PMS_P1;PMS_P2;Temp;Humidity;BMP_temperature;BMP_pressure;BME280_temperature;BME280_humidity;BME280_pressure;Samples;Min_cycle;Max_cycle;Signal;HPM_P1;HPM_P2
2023/07/05 00:02:10;;;;;;;9.10;6.20;;;;;;;;;;108091;1251;22528;-80
2023/07/05 00:04:37;;;;;;;11.60;5.70;;;;;;;;;;108167;1251;22618;-81
2023/07/05 00:07:03;;;;;;;14.80;7.10;;;;;;;;;;108162;1251;22576;-80
2023/07/05 00:09:30;;;;;;;10.30;6.70;;;;;;;;;;108095;1251;22794;-80
2023/07/05 00:11:56;;;;;;;9.40;6.80;;;;;;;;;;108147;1251;22708;-80
2023/07/05 00:14:22;;;;;;;10.80;6.00;;;;;;;;;;108148;1250;25342;-80
2023/07/05 00:16:49;;;;;;;11.20;6.40;;;;;;;;;;108109;1251;23253;-80
2023/07/05 00:19:15;;;;;;;9.20;6.30;;;;;;;;;;108080;1251;24384;-80
2023/07/05 00:21:41;;;;;;;10.70;6.90;;;;;;;;;;108114;1251;22542;-80
2023/07/05 00:24:08;;;;;;;11.30;5.90;;;;;;;;;;108100;1266;22568;-80
2023/07/05 00:26:34;;;;;;;12.90;6.80;;;;;;;;;;108167;1251;22579;-80
2023/07/05 00:29:01;;;;;;;9.30;5.50;;;;;;;;;;108123;1251;24233;-80
2023/07/05 00:31:27;;;;;;;10.10;6.60;;;;;;;;;;108116;1254;22580;-80
2023/07/05 00:33:54;;;;;;;13.10;6.30;;;;;;;;;;108113;1251;22549;-80
2023/07/05 00:36:20;;;;;;;12.60;6.60;;;;;;;;;;108120;1251;22615;-80
2023/07/05 00:38:46;;;;;;;9.90;6.60;;;;;;;;;;108163;1251;23622;-80
2023/07/05 00:41:13;;;;;;;11.80;6.20;;;;;;;;;;108202;1251;25389;-80
2023/07/05 00:43:39;;;;;;;10.80;5.70;;;;;;;;;;108174;1251;25364;-80
2023/07/05 00:46:26;;;;;;;11.50;6.00;;;;;;;;;;108148;1251;23022;-80
2023/07/05 00:48:53;;;;;;;9.40;6.20;;;;;;;;;;108173;1251;22532;-80
2023/07/05 00:51:40;;;;;;;12.80;7.20;;;;;;;;;;108118;1251;24279;-80
2023/07/05 00:54:07;;;;;;;12.90;5.80;;;;;;;;;;108203;1250;22521;-80
2023/07/05 00:56:36;;;;;;;9.10;5.90;;;;;;;;;;108171;1251;22537;-81
2023/07/05 00:59:02;;;;;;;;;;;;;;;;;;108153;1251;22429;-80
2023/07/05 01:01:29;;;;;;;11.40;6.90;;;;;;;;;;108203;1251;22993;-80
2023/07/05 01:03:56;;;;;;;11.60;6.30;;;;;;;;;;108199;1251;25407;-80
2023/07/05 01:06:22;;;;;;;11.50;6.30;;;;;;;;;;108197;1251;24175;-80
2023/07/05 01:08:49;;;;;;;11.30;6.50;;;;;;;;;;108017;1257;22528;-80
2023/07/05 01:11:34;;;;;;;13.90;6.10;;;;;;;;;;108207;1251;22629;-80
2023/07/05 01:14:04;;;;;;;9.30;5.90;;;;;;;;;;108177;1251;24393;-80
2023/07/05 01:16:35;;;;;;;7.70;5.30;;;;;;;;;;108125;1254;22938;-80
2023/07/05 01:19:06;;;;;;;11.10;6.30;;;;;;;;;;107988;1253;23335;-80
2023/07/05 01:21:43;;;;;;;13.50;6.40;;;;;;;;;;108288;1251;26595;-80
2023/07/05 01:24:09;;;;;;;12.90;6.40;;;;;;;;;;108067;1251;24235;-80
2023/07/05 01:26:35;;;;;;;10.10;7.20;;;;;;;;;;108091;1252;22566;-80
2023/07/05 01:29:02;;;;;;;11.90;6.20;;;;;;;;;;108117;1251;22626;-80
2023/07/05 01:31:28;;;;;;;10.60;6.10;;;;;;;;;;108153;1251;24369;-80
2023/07/05 01:33:58;;;;;;;9.20;6.70;;;;;;;;;;108126;1251;24169;-80
2023/07/05 01:36:25;;;;;;;11.50;5.60;;;;;;;;;;108104;1251;23184;-80
2023/07/05 01:38:51;;;;;;;11.10;6.00;;;;;;;;;;107955;1251;22621;-80
2023/07/05 01:41:18;;;;;;;9.90;6.10;;;;;;;;;;108196;1251;22543;-81
2023/07/05 01:43:45;;;;;;;10.70;6.30;;;;;;;;;;108124;1252;24220;-80
2023/07/05 01:46:24;;;;;;;13.20;6.50;;;;;;;;;;108215;1251;23262;-80
2023/07/05 01:48:56;;;;;;;9.60;6.20;;;;;;;;;;108174;1251;23031;-80
2023/07/05 01:51:32;;;;;;;13.10;6.50;;;;;;;;;;108171;1251;24033;-80
2023/07/05 01:54:05;;;;;;;11.30;6.50;;;;;;;;;;108175;1250;24204;-80
2023/07/05 01:56:35;;;;;;;9.20;6.10;;;;;;;;;;108180;1250;22535;-80
2023/07/05 01:59:04;;;;;;;11.00;7.10;;;;;;;;;;108210;1251;22570;-80
2023/07/05 02:01:30;;;;;;;13.90;7.40;;;;;;;;;;108188;1251;22615;-80
2023/07/05 02:03:56;;;;;;;11.50;6.70;;;;;;;;;;108206;1251;22589;-80
2023/07/05 02:06:23;;;;;;;13.10;6.50;;;;;;;;;;108123;1250;22612;-80
2023/07/05 02:08:49;;;;;;;12.10;6.70;;;;;;;;;;108388;1256;25377;-80
2023/07/05 02:11:16;;;;;;;13.90;6.40;;;;;;;;;;108192;1251;22531;-80
2023/07/05 02:13:42;;;;;;;7.50;5.20;;;;;;;;;;108102;1251;22543;-80
2023/07/05 02:16:09;;;;;;;9.30;6.20;;;;;;;;;;108211;1251;24375;-80
2023/07/05 02:18:35;;;;;;;11.20;6.20;;;;;;;;;;108169;1251;22662;-80
2023/07/05 02:21:01;;;;;;;14.20;7.00;;;;;;;;;;108181;1251;22528;-80
2023/07/05 02:23:28;;;;;;;9.80;6.20;;;;;;;;;;108154;1251;22555;-80
2023/07/05 02:25:57;;;;;;;14.60;6.50;;;;;;;;;;108126;1251;22615;-80
2023/07/05 02:28:24;;;;;;;12.30;5.80;;;;;;;;;;108026;1251;22551;-80
2023/07/05 02:30:51;;;;;;;16.30;6.70;;;;;;;;;;108257;1251;23949;-80
2023/07/05 02:33:17;;;;;;;10.20;6.30;;;;;;;;;;108270;1251;22585;-80
2023/07/05 02:35:43;;;;;;;14.90;6.40;;;;;;;;;;108175;1251;22527;-79
2023/07/05 02:38:10;;;;;;;12.20;6.30;;;;;;;;;;108138;1251;23005;-80
2023/07/05 02:40:36;;;;;;;9.80;5.80;;;;;;;;;;108609;1251;22536;-80
2023/07/05 02:43:03;;;;;;;12.10;6.40;;;;;;;;;;108067;1252;22542;-80
2023/07/05 02:45:29;;;;;;;12.60;6.90;;;;;;;;;;108137;1250;22620;-80
2023/07/05 02:47:56;;;;;;;12.20;6.90;;;;;;;;;;108138;1251;25311;-80
2023/07/05 02:50:22;;;;;;;8.50;5.90;;;;;;;;;;108219;1251;22584;-80
2023/07/05 02:52:48;;;;;;;13.30;7.30;;;;;;;;;;107552;1255;22569;-80
2023/07/05 02:55:15;;;;;;;8.40;6.20;;;;;;;;;;108097;1251;23007;-80
2023/07/05 02:57:41;;;;;;;9.80;7.10;;;;;;;;;;108191;1251;22521;-80
2023/07/05 03:00:08;;;;;;;12.10;7.10;;;;;;;;;;108142;1251;24217;-79
2023/07/05 03:02:34;;;;;;;8.50;6.10;;;;;;;;;;108123;1250;25090;-79
2023/07/05 03:05:07;;;;;;;10.50;5.90;;;;;;;;;;108181;1251;22603;-80
2023/07/05 03:07:34;;;;;;;9.60;6.40;;;;;;;;;;107962;1251;23239;-79
2023/07/05 03:10:00;;;;;;;9.10;5.50;;;;;;;;;;108241;1251;25274;-80
2023/07/05 03:12:27;;;;;;;13.60;5.60;;;;;;;;;;108308;1253;22546;-80
2023/07/05 03:14:53;;;;;;;9.20;5.60;;;;;;;;;;108108;1251;22941;-79
2023/07/05 03:17:19;;;;;;;11.00;6.60;;;;;;;;;;108135;1251;22573;-80
2023/07/05 03:19:46;;;;;;;12.20;7.30;;;;;;;;;;108159;1251;22542;-80
2023/07/05 03:22:13;;;;;;;16.10;6.90;;;;;;;;;;108159;1251;23067;-80
2023/07/05 03:24:39;;;;;;;9.10;6.60;;;;;;;;;;108202;1250;25361;-79
2023/07/05 03:27:05;;;;;;;12.90;6.50;;;;;;;;;;107386;1265;22524;-80
2023/07/05 03:29:32;;;;;;;12.20;6.80;;;;;;;;;;107561;1251;25221;-79
2023/07/05 03:31:59;;;;;;;10.10;6.10;;;;;;;;;;108143;1251;22531;-80
2023/07/05 03:34:25;;;;;;;11.20;6.30;;;;;;;;;;108153;1251;25345;-80
2023/07/05 03:36:51;;;;;;;9.00;5.30;;;;;;;;;;108179;1249;23698;-80
2023/07/05 03:39:18;;;;;;;13.70;6.20;;;;;;;;;;108204;1251;22543;-79
2023/07/05 03:41:44;;;;;;;12.80;6.40;;;;;;;;;;108114;1251;24203;-79
2023/07/05 03:44:10;;;;;;;9.30;6.80;;;;;;;;;;108140;1251;26605;-80
2023/07/05 03:46:37;;;;;;;11.20;7.20;;;;;;;;;;108174;1251;22534;-80
2023/07/05 03:49:03;;;;;;;11.50;7.40;;;;;;;;;;107601;1251;24259;-79
2023/07/05 03:51:30;;;;;;;15.60;7.30;;;;;;;;;;107583;1251;24350;-80
2023/07/05 03:53:56;;;;;;;10.70;7.00;;;;;;;;;;107559;1251;25348;-79
2023/07/05 03:56:23;;;;;;;11.20;6.90;;;;;;;;;;107531;1251;23927;-80
2023/07/05 03:58:49;;;;;;;11.80;6.10;;;;;;;;;;107519;1251;22527;-80
2023/07/05 04:01:17;;;;;;;8.30;6.20;;;;;;;;;;108137;1251;22507;-80
2023/07/05 04:03:44;;;;;;;12.00;6.20;;;;;;;;;;108321;1251;23036;-79
2023/07/05 04:06:11;;;;;;;7.50;5.30;;;;;;;;;;108146;1251;25474;-79
2023/07/05 04:08:38;;;;;;;10.30;6.50;;;;;;;;;;107996;1251;23285;-80
2023/07/05 04:11:04;;;;;;;10.70;6.60;;;;;;;;;;108119;1251;22682;-80
2023/07/05 04:13:30;;;;;;;12.00;6.00;;;;;;;;;;108132;1250;22585;-80
2023/07/05 04:16:08;;;;;;;10.80;5.70;;;;;;;;;;107615;1250;22543;-80
2023/07/05 04:18:35;;;;;;;10.10;6.80;;;;;;;;;;108064;1252;22540;-80
2023/07/05 04:21:01;;;;;;;11.80;6.40;;;;;;;;;;108186;1251;22548;-80
2023/07/05 04:23:28;;;;;;;13.70;6.50;;;;;;;;;;108211;1251;26696;-80
2023/07/05 04:25:58;;;;;;;8.50;5.60;;;;;;;;;;108138;1251;24752;-80
2023/07/05 04:28:25;;;;;;;9.10;5.40;;;;;;;;;;108130;1251;23274;-80
2023/07/05 04:30:51;;;;;;;11.60;6.60;;;;;;;;;;108121;1251;22522;-79
2023/07/05 04:33:17;;;;;;;10.70;6.30;;;;;;;;;;108126;1251;24199;-80
2023/07/05 04:35:48;;;;;;;7.90;5.80;;;;;;;;;;108134;1251;22567;-80
2023/07/05 04:38:14;;;;;;;9.90;6.00;;;;;;;;;;108177;1251;22587;-80
2023/07/05 04:40:41;;;;;;;11.90;6.60;;;;;;;;;;108206;1251;24248;-80
2023/07/05 04:43:07;;;;;;;13.10;6.10;;;;;;;;;;108137;1251;22539;-81
2023/07/05 04:45:33;;;;;;;9.90;6.00;;;;;;;;;;108169;1251;25517;-80
2023/07/05 04:48:00;;;;;;;9.00;6.30;;;;;;;;;;108154;1254;22555;-80
2023/07/05 04:50:26;;;;;;;10.60;6.30;;;;;;;;;;108130;1251;22568;-80
2023/07/05 04:52:53;;;;;;;10.60;6.20;;;;;;;;;;108185;1251;23801;-81
2023/07/05 04:55:19;;;;;;;9.70;6.60;;;;;;;;;;108053;1251;24197;-80
2023/07/05 04:57:46;;;;;;;9.80;6.40;;;;;;;;;;108130;1251;22645;-80
2023/07/05 05:00:12;;;;;;;11.10;6.70;;;;;;;;;;108172;1251;22516;-80
2023/07/05 05:02:39;;;;;;;11.50;7.10;;;;;;;;;;108259;1251;23167;-81
2023/07/05 05:05:05;;;;;;;13.80;7.70;;;;;;;;;;108373;1250;22472;-80
2023/07/05 05:07:32;;;;;;;14.10;8.70;;;;;;;;;;108151;1255;22547;-80
2023/07/05 05:09:58;;;;;;;16.50;8.60;;;;;;;;;;108117;1252;22550;-80
2023/07/05 05:12:25;;;;;;;13.10;8.10;;;;;;;;;;108217;1251;22642;-80
2023/07/05 05:14:51;;;;;;;16.60;7.60;;;;;;;;;;108346;1251;23248;-80
2023/07/05 05:17:18;;;;;;;12.70;8.00;;;;;;;;;;108236;1254;22518;-80
2023/07/05 05:19:44;;;;;;;13.40;8.50;;;;;;;;;;108175;1251;22600;-80
2023/07/05 05:22:10;;;;;;;17.70;8.40;;;;;;;;;;108383;1251;22584;-80
2023/07/05 05:24:37;;;;;;;16.30;8.20;;;;;;;;;;108405;1254;24094;-80
2023/07/05 05:27:04;;;;;;;11.40;7.50;;;;;;;;;;108392;1251;24260;-80
2023/07/05 05:29:30;;;;;;;14.50;7.40;;;;;;;;;;108241;1251;22525;-80
2023/07/05 05:31:56;;;;;;;10.00;7.30;;;;;;;;;;108192;1251;26470;-80
2023/07/05 05:34:26;;;;;;;10.70;7.30;;;;;;;;;;108322;1251;25480;-80
2023/07/05 05:36:52;;;;;;;14.40;8.10;;;;;;;;;;108241;1251;22608;-80
2023/07/05 05:39:19;;;;;;;16.10;8.50;;;;;;;;;;108260;1251;25272;-80
2023/07/05 05:41:45;;;;;;;14.50;7.70;;;;;;;;;;108333;1254;22550;-80
2023/07/05 05:44:12;;;;;;;10.10;7.00;;;;;;;;;;108239;1250;23139;-80
2023/07/05 05:46:38;;;;;;;12.00;7.90;;;;;;;;;;108603;1250;22169;-80
2023/07/05 05:49:04;;;;;;;12.00;6.90;;;;;;;;;;108787;1251;25448;-80
2023/07/05 05:51:31;;;;;;;12.20;7.10;;;;;;;;;;108336;1251;23010;-80
2023/07/05 05:53:57;;;;;;;35.90;24.60;;;;;;;;;;108214;1250;23425;-80
2023/07/05 05:56:24;;;;;;;32.00;23.90;;;;;;;;;;108228;1251;25354;-80
2023/07/05 05:58:50;;;;;;;16.40;12.80;;;;;;;;;;108225;1251;22543;-81
2023/07/05 06:01:19;;;;;;;11.50;9.60;;;;;;;;;;108667;1251;22565;-80
2023/07/05 06:03:46;;;;;;;11.30;9.50;;;;;;;;;;108235;1251;23231;-80
2023/07/05 06:06:12;;;;;;;7.90;5.90;;;;;;;;;;108130;1252;22636;-80
2023/07/05 06:08:39;;;;;;;12.60;6.70;;;;;;;;;;108251;1251;24247;-80
2023/07/05 06:11:05;;;;;;;11.00;6.30;;;;;;;;;;108285;1251;23095;-80
2023/07/05 06:13:31;;;;;;;11.30;6.80;;;;;;;;;;108316;1251;22586;-80
2023/07/05 06:15:59;;;;;;;12.60;6.30;;;;;;;;;;108354;1251;24244;-80
2023/07/05 06:18:26;;;;;;;11.20;6.40;;;;;;;;;;108093;1251;26367;-80
2023/07/05 06:20:53;;;;;;;15.10;6.60;;;;;;;;;;108550;1251;22588;-80
2023/07/05 06:23:19;;;;;;;9.90;6.10;;;;;;;;;;108661;1251;22615;-80
2023/07/05 06:25:49;;;;;;;11.50;6.30;;;;;;;;;;108693;1251;23283;-81
2023/07/05 06:28:18;;;;;;;11.10;6.20;;;;;;;;;;108739;1251;22598;-80
2023/07/05 06:30:45;;;;;;;10.60;6.10;;;;;;;;;;108894;1251;22553;-81
2023/07/05 06:33:12;;;;;;;11.30;6.10;;;;;;;;;;108823;1251;22727;-81
2023/07/05 06:35:38;;;;;;;15.90;9.60;;;;;;;;;;108789;1254;22696;-81
2023/07/05 06:38:05;;;;;;;13.40;6.90;;;;;;;;;;108634;1251;22584;-80
2023/07/05 06:40:31;;;;;;;10.40;6.60;;;;;;;;;;108707;1251;22555;-81
2023/07/05 06:42:58;;;;;;;13.50;7.10;;;;;;;;;;108785;1251;25099;-80
2023/07/05 06:45:24;;;;;;;12.10;7.20;;;;;;;;;;108657;1251;22555;-81
2023/07/05 06:47:51;;;;;;;9.80;5.50;;;;;;;;;;108659;1251;22658;-81
2023/07/05 06:50:17;;;;;;;16.80;7.00;;;;;;;;;;108820;1250;25242;-81
2023/07/05 06:52:44;;;;;;;13.30;6.70;;;;;;;;;;108827;1251;22542;-81
2023/07/05 06:55:10;;;;;;;9.80;5.90;;;;;;;;;;109010;1251;22551;-81
2023/07/05 06:57:37;;;;;;;9.70;6.30;;;;;;;;;;108942;1251;22622;-81
2023/07/05 07:00:06;;;;;;;11.10;6.80;;;;;;;;;;108794;1255;22585;-81
2023/07/05 07:02:32;;;;;;;9.40;5.80;;;;;;;;;;108861;1251;22630;-80
2023/07/05 07:04:59;;;;;;;20.00;6.60;;;;;;;;;;108677;1250;22551;-80
2023/07/05 07:07:25;;;;;;;11.40;5.20;;;;;;;;;;108355;1251;149026;-80
2023/07/05 07:09:51;;;;;;;10.80;6.50;;;;;;;;;;108384;1254;22530;-81
2023/07/05 07:12:18;;;;;;;9.00;5.90;;;;;;;;;;108438;1251;26444;-82
2023/07/05 07:14:44;;;;;;;8.80;5.80;;;;;;;;;;108480;1252;25224;-80
2023/07/05 07:17:10;;;;;;;10.30;6.40;;;;;;;;;;108373;1250;22572;-81
2023/07/05 07:19:37;;;;;;;13.40;6.00;;;;;;;;;;108329;1251;23169;-80
2023/07/05 07:22:05;;;;;;;12.80;5.90;;;;;;;;;;108560;1251;25392;-81
2023/07/05 07:24:31;;;;;;;10.50;6.20;;;;;;;;;;108379;1251;22552;-81
2023/07/05 07:26:58;;;;;;;10.90;6.70;;;;;;;;;;108218;1253;22560;-81
2023/07/05 07:29:24;;;;;;;8.20;5.90;;;;;;;;;;108407;1253;23231;-81
2023/07/05 07:31:51;;;;;;;11.00;6.30;;;;;;;;;;108326;1251;22537;-81
2023/07/05 07:34:18;;;;;;;10.70;5.50;;;;;;;;;;108418;1249;23099;-81
2023/07/05 07:36:45;;;;;;;10.90;6.00;;;;;;;;;;108505;1251;22626;-81
2023/07/05 07:39:11;;;;;;;11.00;7.10;;;;;;;;;;108654;1254;22532;-81
2023/07/05 07:41:38;;;;;;;9.30;6.00;;;;;;;;;;108780;1251;22539;-81
2023/07/05 07:44:05;;;;;;;9.40;5.20;;;;;;;;;;108610;1253;22521;-80
2023/07/05 07:46:32;;;;;;;6.90;5.00;;;;;;;;;;108569;1254;22585;-81
2023/07/05 07:48:59;;;;;;;8.00;4.90;;;;;;;;;;108622;1252;22607;-81
2023/07/05 07:51:30;;;;;;;7.20;5.00;;;;;;;;;;108723;1251;22726;-81
2023/07/05 07:53:56;;;;;;;9.10;5.10;;;;;;;;;;108770;1253;22535;-81
2023/07/05 07:56:23;;;;;;;7.20;5.40;;;;;;;;;;108621;1253;24867;-81
2023/07/05 07:58:50;;;;;;;7.90;5.40;;;;;;;;;;108601;1251;25460;-81
2023/07/05 08:01:22;;;;;;;7.40;5.20;;;;;;;;;;108636;1251;24213;-81
2023/07/05 08:03:49;;;;;;;9.60;5.30;;;;;;;;;;108458;1251;22523;-81
2023/07/05 08:06:16;;;;;;;7.20;4.60;;;;;;;;;;108557;1253;23240;-81
2023/07/05 08:08:42;;;;;;;9.20;4.60;;;;;;;;;;108552;1251;24225;-81
2023/07/05 08:11:08;;;;;;;6.40;4.40;;;;;;;;;;108415;1253;22671;-81
2023/07/05 08:13:36;;;;;;;7.80;5.00;;;;;;;;;;108665;1254;25292;-82
2023/07/05 08:16:02;;;;;;;11.30;4.40;;;;;;;;;;108414;1254;22616;-81
2023/07/05 08:18:29;;;;;;;10.00;5.00;;;;;;;;;;108088;1250;23154;-81
2023/07/05 08:20:56;;;;;;;8.10;3.80;;;;;;;;;;108236;1252;22513;-81
2023/07/05 08:23:22;;;;;;;8.90;4.70;;;;;;;;;;108222;1253;24469;-82
2023/07/05 08:25:54;;;;;;;7.40;5.00;;;;;;;;;;108072;1251;22530;-81
2023/07/05 08:28:24;;;;;;;6.30;4.50;;;;;;;;;;107941;1249;22547;-81
2023/07/05 08:30:55;;;;;;;6.70;4.30;;;;;;;;;;108296;1252;22535;-81
2023/07/05 08:33:22;;;;;;;12.30;4.70;;;;;;;;;;108462;1252;22580;-81
2023/07/05 08:35:48;;;;;;;7.50;4.20;;;;;;;;;;108008;1251;25333;-81
2023/07/05 08:38:18;;;;;;;6.10;4.50;;;;;;;;;;108033;1251;24240;-81
2023/07/05 08:40:46;;;;;;;7.20;3.80;;;;;;;;;;108169;1251;22527;-81
2023/07/05 08:43:13;;;;;;;5.30;3.40;;;;;;;;;;108271;1254;22543;-81
2023/07/05 08:45:42;;;;;;;5.90;4.20;;;;;;;;;;108036;1255;25292;-81
2023/07/05 08:48:08;;;;;;;7.00;4.30;;;;;;;;;;108060;1251;22657;-81
2023/07/05 08:50:35;;;;;;;9.10;5.40;;;;;;;;;;108353;1251;22546;-82
2023/07/05 08:53:20;;;;;;;6.20;4.60;;;;;;;;;;108110;1252;25269;-81
2023/07/05 08:56:20;;;;;;;6.70;4.40;;;;;;;;;;107993;1252;22534;-82
2023/07/05 08:58:48;;;;;;;6.90;3.90;;;;;;;;;;108323;1251;22810;-81
2023/07/05 09:01:19;;;;;;;8.90;4.90;;;;;;;;;;110568;1252;22451;-82
2023/07/05 09:03:46;;;;;;;7.80;3.90;;;;;;;;;;110568;1251;22304;-82
2023/07/05 09:06:18;;;;;;;5.90;4.30;;;;;;;;;;110603;1251;22433;-82
2023/07/05 09:09:04;;;;;;;6.70;3.80;;;;;;;;;;108475;1251;22563;-83
2023/07/05 09:12:00;;;;;;;4.90;3.70;;;;;;;;;;108417;1249;25446;-82
2023/07/05 09:14:42;;;;;;;6.10;4.00;;;;;;;;;;108204;1253;22528;-82
2023/07/05 09:17:24;;;;;;;6.20;4.20;;;;;;;;;;108008;1252;22532;-83
2023/07/05 09:19:50;;;;;;;7.70;3.40;;;;;;;;;;108242;1253;22514;-82
2023/07/05 09:22:22;;;;;;;5.00;3.40;;;;;;;;;;108011;1251;22538;-82
2023/07/05 09:24:49;;;;;;;5.90;3.90;;;;;;;;;;108046;1251;22517;-82
2023/07/05 09:27:22;;;;;;;5.50;3.40;;;;;;;;;;107963;1251;22567;-82
2023/07/05 09:29:51;;;;;;;6.50;3.80;;;;;;;;;;108073;1251;25510;-82
2023/07/05 09:32:19;;;;;;;7.80;3.40;;;;;;;;;;108153;1251;24251;-82
2023/07/05 09:34:46;;;;;;;5.00;3.10;;;;;;;;;;108263;1251;22608;-82
2023/07/05 09:37:20;;;;;;;5.40;3.10;;;;;;;;;;108055;1255;22523;-82
2023/07/05 09:40:05;;;;;;;5.40;3.30;;;;;;;;;;108244;1251;25256;-82
2023/07/05 09:42:33;;;;;;;4.80;3.20;;;;;;;;;;108542;1253;23046;-83
2023/07/05 09:45:00;;;;;;;5.80;3.20;;;;;;;;;;108424;1252;22525;-82
2023/07/05 09:47:26;;;;;;;4.20;3.40;;;;;;;;;;108416;1250;22541;-82
2023/07/05 09:49:52;;;;;;;7.70;3.10;;;;;;;;;;108564;1252;25628;-82
2023/07/05 09:52:22;;;;;;;5.20;3.10;;;;;;;;;;108525;1251;22612;-82
2023/07/05 09:54:49;;;;;;;5.00;3.00;;;;;;;;;;108393;1253;22528;-82
2023/07/05 09:57:21;;;;;;;6.70;3.30;;;;;;;;;;108072;1251;22604;-82
2023/07/05 09:59:47;;;;;;;3.60;2.80;;;;;;;;;;108163;1253;22642;-83
2023/07/05 10:02:16;;;;;;;5.40;3.10;;;;;;;;;;108208;1253;22511;-82
2023/07/05 10:04:46;;;;;;;5.90;3.30;;;;;;;;;;108296;1252;22682;-82
2023/07/05 10:07:14;;;;;;;7.20;3.90;;;;;;;;;;108556;1251;23297;-82
2023/07/05 10:09:52;;;;;;;3.20;2.80;;;;;;;;;;108548;1255;23157;-82
2023/07/05 10:12:19;;;;;;;3.70;2.90;;;;;;;;;;108507;1252;22566;-82
2023/07/05 10:14:45;;;;;;;3.90;2.90;;;;;;;;;;108331;1253;22553;-82
2023/07/05 10:17:12;;;;;;;3.80;2.90;;;;;;;;;;108466;1251;22475;-82
2023/07/05 10:19:56;;;;;;;4.00;2.50;;;;;;;;;;108726;1252;22596;-82
2023/07/05 10:22:27;;;;;;;5.10;3.00;;;;;;;;;;108543;1251;23084;-82
2023/07/05 10:25:00;;;;;;;5.40;3.40;;;;;;;;;;108238;1255;23145;-82
2023/07/05 10:27:27;;;;;;;5.20;2.80;;;;;;;;;;108000;1252;22553;-82
2023/07/05 10:29:55;;;;;;;;;;;;;;;;;;108131;1253;22544;-82
2023/07/05 10:32:22;;;;;;;5.90;2.60;;;;;;;;;;108250;1251;22567;-82
2023/07/05 10:34:49;;;;;;;;;;;;;;;;;;108178;1251;22979;-82
2023/07/05 10:37:35;;;;;;;3.90;2.40;;;;;;;;;;109034;1251;25123;-82
2023/07/05 10:40:09;;;;;;;4.50;2.50;;;;;;;;;;108126;1250;22663;-82
2023/07/05 10:42:37;;;;;;;4.50;2.70;;;;;;;;;;108083;1251;22617;-82
2023/07/05 10:45:04;;;;;;;5.90;2.90;;;;;;;;;;107868;1251;23065;-82
2023/07/05 10:47:31;;;;;;;3.90;2.20;;;;;;;;;;107993;1251;22643;-82
2023/07/05 10:50:00;;;;;;;3.30;2.70;;;;;;;;;;108055;1253;22531;-83
2023/07/05 10:52:27;;;;;;;5.90;2.60;;;;;;;;;;108137;1252;22538;-83
2023/07/05 10:55:05;;;;;;;3.20;2.40;;;;;;;;;;107977;1251;25710;-83
2023/07/05 10:57:33;;;;;;;3.30;2.50;;;;;;;;;;108078;1252;22696;-83
2023/07/05 11:00:11;;;;;;;5.20;2.30;;;;;;;;;;108406;1252;25375;-82
2023/07/05 11:02:39;;;;;;;5.40;2.60;;;;;;;;;;108284;1253;22528;-82
2023/07/05 11:05:16;;;;;;;3.30;2.50;;;;;;;;;;108290;1253;22567;-83
2023/07/05 11:07:43;;;;;;;4.20;2.40;;;;;;;;;;108383;1252;23198;-82
2023/07/05 11:10:13;;;;;;;3.50;2.70;;;;;;;;;;108442;1252;22547;-83
2023/07/05 11:12:41;;;;;;;3.60;2.20;;;;;;;;;;108563;1253;23587;-82
2023/07/05 11:15:10;;;;;;;2.80;2.40;;;;;;;;;;108498;1257;22822;-82
2023/07/05 11:17:36;;;;;;;3.80;2.60;;;;;;;;;;108594;1251;22591;-82
2023/07/05 11:20:06;;;;;;;6.70;2.80;;;;;;;;;;108428;1253;22589;-82
2023/07/05 11:22:43;;;;;;;5.00;2.50;;;;;;;;;;108872;1251;24183;-84
2023/07/05 11:25:15;;;;;;;3.50;2.40;;;;;;;;;;108464;1251;22655;-82
2023/07/05 11:27:47;;;;;;;4.90;2.60;;;;;;;;;;108384;1252;22534;-83
2023/07/05 11:30:32;;;;;;;4.00;2.60;;;;;;;;;;108402;1252;23177;-82
2023/07/05 11:33:02;;;;;;;2.60;2.00;;;;;;;;;;108460;1253;22577;-83
2023/07/05 11:35:41;;;;;;;5.10;3.30;;;;;;;;;;108520;1252;22549;-82
2023/07/05 11:38:07;;;;;;;6.80;3.20;;;;;;;;;;108536;1252;24425;-82
2023/07/05 11:40:52;;;;;;;3.40;2.50;;;;;;;;;;108415;1253;22583;-82
2023/07/05 11:43:23;;;;;;;7.60;3.90;;;;;;;;;;108455;1252;22655;-82
2023/07/05 11:45:50;;;;;;;4.30;3.30;;;;;;;;;;108407;1253;22665;-82
2023/07/05 11:48:35;;;;;;;4.70;3.20;;;;;;;;;;108462;1255;22745;-82
2023/07/05 11:51:01;;;;;;;3.80;2.80;;;;;;;;;;108466;1255;26268;-82
2023/07/05 11:53:28;;;;;;;5.70;3.00;;;;;;;;;;108440;1253;25504;-82
2023/07/05 11:55:55;;;;;;;3.30;2.70;;;;;;;;;;108372;1251;22529;-82
2023/07/05 11:58:26;;;;;;;6.40;2.70;;;;;;;;;;108514;1253;22628;-82
2023/07/05 12:00:59;;;;;;;3.80;2.50;;;;;;;;;;108491;1253;22634;-82
2023/07/05 12:03:28;;;;;;;5.70;2.80;;;;;;;;;;108482;1252;22568;-82
2023/07/05 12:05:55;;;;;;;5.30;3.00;;;;;;;;;;108501;1255;22653;-82
2023/07/05 12:08:26;;;;;;;7.80;2.80;;;;;;;;;;108449;1252;23145;-82
2023/07/05 12:10:54;;;;;;;4.80;3.20;;;;;;;;;;108489;1251;24349;-81
2023/07/05 12:13:21;;;;;;;;;;;;;;;;;;108460;1253;22520;-82
2023/07/05 12:15:47;;;;;;;4.90;3.30;;;;;;;;;;108726;1255;22599;-82
2023/07/05 12:18:14;;;;;;;4.60;3.30;;;;;;;;;;109491;1251;22364;-82
2023/07/05 12:20:41;;;;;;;4.70;3.00;;;;;;;;;;110579;1251;22989;-82
2023/07/05 12:23:12;;;;;;;4.90;3.00;;;;;;;;;;110477;1251;22387;-82
2023/07/05 12:25:50;;;;;;;5.30;3.40;;;;;;;;;;110537;1251;23281;-82
2023/07/05 12:28:17;;;;;;;4.70;3.10;;;;;;;;;;110553;1251;22981;-82
2023/07/05 12:30:44;;;;;;;6.70;3.50;;;;;;;;;;110553;1251;22997;-82
2023/07/05 12:33:21;;;;;;;5.60;3.50;;;;;;;;;;110478;1251;22951;-82
2023/07/05 12:36:03;;;;;;;7.40;3.30;;;;;;;;;;109067;1255;22564;-82
2023/07/05 12:38:32;;;;;;;10.40;4.00;;;;;;;;;;108430;1254;25497;-81
2023/07/05 12:40:58;;;;;;;9.00;3.90;;;;;;;;;;108639;1252;22546;-81
2023/07/05 12:43:32;;;;;;;7.60;4.50;;;;;;;;;;108527;1251;22527;-81
2023/07/05 12:46:09;;;;;;;9.20;5.00;;;;;;;;;;108367;1251;23060;-81
2023/07/05 12:48:35;;;;;;;8.10;4.30;;;;;;;;;;108428;1252;23174;-82
2023/07/05 12:51:15;;;;;;;9.20;6.20;;;;;;;;;;108449;1255;23307;-82
2023/07/05 12:53:41;;;;;;;6.90;4.60;;;;;;;;;;108384;1252;22551;-82
2023/07/05 12:56:09;;;;;;;5.60;2.90;;;;;;;;;;108330;1251;22552;-82
2023/07/05 12:58:35;;;;;;;7.90;3.60;;;;;;;;;;108378;1251;22576;-82
2023/07/05 13:01:02;;;;;;;11.50;5.30;;;;;;;;;;108559;1253;22761;-82
2023/07/05 13:03:29;;;;;;;6.00;3.70;;;;;;;;;;108519;1255;25044;-82
2023/07/05 13:05:55;;;;;;;7.80;4.00;;;;;;;;;;108446;1251;22574;-82
2023/07/05 13:08:22;;;;;;;9.50;3.70;;;;;;;;;;108367;1251;22770;-82
2023/07/05 13:10:51;;;;;;;7.40;3.80;;;;;;;;;;108556;1255;23080;-82
2023/07/05 13:13:22;;;;;;;5.40;3.90;;;;;;;;;;108524;1251;25469;-82
2023/07/05 13:15:48;;;;;;;9.80;3.50;;;;;;;;;;108136;1251;22768;-82
2023/07/05 13:18:41;;;;;;;6.80;3.10;;;;;;;;;;108461;1256;22577;-82
2023/07/05 13:21:12;;;;;;;5.50;3.30;;;;;;;;;;108696;1254;22576;-82
2023/07/05 13:23:45;;;;;;;5.70;3.20;;;;;;;;;;108715;1252;22559;-82
2023/07/05 13:26:18;;;;;;;4.60;3.50;;;;;;;;;;108768;1251;24216;-82
2023/07/05 13:28:45;;;;;;;7.80;3.60;;;;;;;;;;108398;1257;22537;-81
2023/07/05 13:31:17;;;;;;;7.80;3.70;;;;;;;;;;108671;1251;24371;-82
2023/07/05 13:33:43;;;;;;;7.40;3.70;;;;;;;;;;108609;1253;22578;-82
2023/07/05 13:36:09;;;;;;;5.90;3.40;;;;;;;;;;108526;1251;22593;-82
2023/07/05 13:38:36;;;;;;;10.20;3.80;;;;;;;;;;108340;1251;23098;-82
2023/07/05 13:41:03;;;;;;;8.00;3.20;;;;;;;;;;108353;1251;22705;-82
2023/07/05 13:43:30;;;;;;;3.70;3.10;;;;;;;;;;108399;1257;27621;-82
2023/07/05 13:46:02;;;;;;;3.40;2.70;;;;;;;;;;108364;1251;25401;-82
2023/07/05 13:48:29;;;;;;;4.40;2.40;;;;;;;;;;108376;1257;22622;-82
2023/07/05 13:50:55;;;;;;;4.80;2.70;;;;;;;;;;108553;1252;22654;-82
2023/07/05 13:53:23;;;;;;;4.70;2.90;;;;;;;;;;108521;1251;22701;-82
2023/07/05 13:55:49;;;;;;;6.10;3.00;;;;;;;;;;108265;1251;26589;-82
2023/07/05 13:58:16;;;;;;;4.60;3.00;;;;;;;;;;108422;1251;22646;-82
2023/07/05 14:00:45;;;;;;;4.40;3.50;;;;;;;;;;108364;1251;25090;-83
2023/07/05 14:03:11;;;;;;;5.60;3.60;;;;;;;;;;108291;1256;22523;-83
2023/07/05 14:05:39;;;;;;;5.40;3.70;;;;;;;;;;108337;1256;23304;-82
2023/07/05 14:08:06;;;;;;;4.40;3.50;;;;;;;;;;108094;1255;22528;-82
2023/07/05 14:10:32;;;;;;;7.60;3.30;;;;;;;;;;108185;1255;22615;-82
2023/07/05 14:13:00;;;;;;;7.00;3.50;;;;;;;;;;108023;1251;25785;-82
2023/07/05 14:15:27;;;;;;;;;;;;;;;;;;108054;1251;22515;-82
2023/07/05 14:17:53;;;;;;;7.20;3.60;;;;;;;;;;107853;1257;26309;-82
2023/07/05 14:20:20;;;;;;;4.60;3.40;;;;;;;;;;108368;1251;23232;-82
2023/07/05 14:22:46;;;;;;;4.80;3.20;;;;;;;;;;108153;1251;22658;-82
2023/07/05 14:25:14;;;;;;;5.70;3.90;;;;;;;;;;108441;1251;22677;-82
2023/07/05 14:27:41;;;;;;;7.40;2.80;;;;;;;;;;108350;1251;22564;-82
2023/07/05 14:30:08;;;;;;;5.10;3.10;;;;;;;;;;108020;1251;23058;-82
2023/07/05 14:32:34;;;;;;;8.30;3.10;;;;;;;;;;107873;1256;22530;-82
2023/07/05 14:35:01;;;;;;;3.80;3.20;;;;;;;;;;107851;1256;26595;-82